Time;durP1;ratioP1;P1;durP2;ratioP2;P2;SDS_P1;SDS_P2;PMS_P1;PMS_P2;Temp;Humidity;BMP_temperature;BMP_pressure;BME280_temperature;BME280_humidity;BME280_pressure;Samples;Min_cycle;Max_cycle;Signal;HPM_P1;HPM_P2
2022/12/15 00:38:42;;;;;;;6.53;1.40;;;;;;;2.08;100.00;100136.84;4953059;29;20059;-83
2022/12/15 00:41:15;;;;;;;7.80;2.53;;;;;;;2.07;100.00;100137.75;4952726;29;20051;-83
2022/12/15 00:43:42;;;;;;;9.55;2.13;;;;;;;2.23;100.00;100163.34;4954129;29;20055;-83
2022/12/15 00:48:55;;;;;;;11.57;2.55;;;;;;;1.99;100.00;100107.72;4955598;28;20058;-83
2022/12/15 01:21:48;;;;;;;9.65;2.17;;;;;;;2.41;100.00;100193.31;4949438;29;20063;-81
2022/12/15 01:24:15;;;;;;;9.85;2.15;;;;;;;2.47;100.00;100206.13;4953980;29;20642;-80
2022/12/15 01:26:41;;;;;;;8.20;2.28;;;;;;;2.40;100.00;100204.50;4954170;29;20055;-81
2022/12/15 01:29:08;;;;;;;9.10;1.92;;;;;;;2.21;100.00;100188.34;4954002;29;20047;-81
2022/12/15 01:31:35;;;;;;;8.80;1.80;;;;;;;2.30;100.00;100198.56;4953017;29;20391;-81
2022/12/15 01:34:02;;;;;;;13.52;1.95;;;;;;;2.31;100.00;100202.88;4953979;29;20477;-82
2022/12/15 01:36:29;;;;;;;11.25;1.75;;;;;;;2.27;100.00;100172.81;4953423;29;20055;-82
2022/12/15 01:38:55;;;;;;;6.50;1.73;;;;;;;2.27;100.00;100157.31;4953180;29;20051;-82
2022/12/15 01:41:23;;;;;;;9.18;1.98;;;;;;;2.23;100.00;100192.66;4952381;29;20055;-82
2022/12/15 01:43:49;;;;;;;9.55;2.28;;;;;;;2.31;100.00;100189.13;4953549;29;20051;-82
2022/12/15 01:46:19;;;;;;;5.25;1.65;;;;;;;1.98;100.00;100158.47;4952977;28;20044;-81
2022/12/15 01:49:11;;;;;;;8.93;2.13;;;;;;;2.40;100.00;100199.31;4953317;29;20047;-82
2022/12/15 01:51:43;;;;;;;6.35;1.80;;;;;;;2.34;100.00;100186.47;4954051;28;20102;-82
2022/12/15 01:54:46;;;;;;;8.95;2.08;;;;;;;2.40;100.00;100202.75;4953231;29;20047;-82
2022/12/15 01:57:21;;;;;;;7.00;2.50;;;;;;;2.34;100.00;100189.06;4952838;29;20047;-82
2022/12/15 01:59:58;;;;;;;6.43;1.90;;;;;;;2.42;100.00;100190.66;4952641;29;20102;-82
2022/12/15 02:02:28;;;;;;;6.28;1.58;;;;;;;2.33;100.00;100187.38;4955047;29;20070;-81
2022/12/15 02:04:58;;;;;;;7.38;2.13;;;;;;;2.34;100.00;100209.72;4952785;29;20082;-82
2022/12/15 02:07:25;;;;;;;11.48;2.72;;;;;;;2.48;100.00;100223.34;4953536;28;20054;-82
2022/12/15 02:09:56;;;;;;;13.55;2.75;;;;;;;2.46;100.00;100213.03;4953569;28;20544;-82
2022/12/15 02:12:28;;;;;;;8.73;2.00;;;;;;;2.45;100.00;100206.13;4951922;29;20078;-81
2022/12/15 02:15:01;;;;;;;8.38;2.35;;;;;;;2.60;100.00;100235.25;4953016;29;20047;-81
2022/12/15 02:17:28;;;;;;;8.18;1.90;;;;;;;2.44;100.00;100242.34;4952395;29;20062;-81
2022/12/15 02:20:01;;;;;;;9.13;2.80;;;;;;;2.52;100.00;100244.84;4951864;29;20110;-82
2022/12/15 02:22:56;;;;;;;5.43;1.67;;;;;;;2.80;100.00;100253.94;4960336;28;20047;-81
2022/12/15 02:25:41;;;;;;;6.53;1.60;;;;;;;2.71;100.00;100235.97;4953689;29;20059;-82
2022/12/15 02:28:31;;;;;;;6.53;1.83;;;;;;;2.75;100.00;100252.31;4952210;29;20450;-82
2022/12/15 02:34:04;;;;;;;6.40;1.85;;;;;;;2.38;100.00;100204.50;4954707;28;20051;-81
2022/12/15 02:36:36;;;;;;;8.00;1.67;;;;;;;2.57;100.00;100212.03;4944169;28;20047;-81
2022/12/15 02:39:06;;;;;;;11.05;2.00;;;;;;;2.87;100.00;100246.09;4956344;28;20267;-81
2022/12/15 02:41:33;;;;;;;9.88;2.05;;;;;;;2.85;100.00;100252.16;4947565;28;20119;-81
2022/12/15 02:44:07;;;;;;;8.00;1.92;;;;;;;2.81;100.00;100263.41;4945107;28;20071;-81
2022/12/15 02:46:41;;;;;;;6.53;1.77;;;;;;;2.62;100.00;100249.00;4941899;29;20043;-81
2022/12/15 02:49:29;;;;;;;12.43;2.03;;;;;;;2.44;100.00;100216.50;4948552;28;20047;-81
2022/12/15 02:52:06;;;;;;;13.48;2.95;;;;;;;2.76;100.00;100277.25;4948409;28;20126;-81
2022/12/15 02:54:59;;;;;;;8.45;1.88;;;;;;;2.61;100.00;100271.41;4947146;28;20055;-81
2022/12/15 02:57:41;;;;;;;11.80;2.97;;;;;;;2.56;100.00;100282.69;4942353;28;20055;-81
2022/12/15 03:00:09;;;;;;;7.10;1.60;;;;;;;2.51;100.00;100284.47;4947994;28;20043;-81
2022/12/15 03:02:41;;;;;;;6.82;2.03;;;;;;;2.53;100.00;100274.97;4951917;29;20051;-81
2022/12/15 03:05:09;;;;;;;5.07;1.95;;;;;;;2.53;100.00;100273.22;4911885;28;1218540;-82
2022/12/15 03:07:35;;;;;;;6.95;1.73;;;;;;;2.22;100.00;100249.50;4943937;29;20098;-82
2022/12/15 03:10:04;;;;;;;7.63;2.10;;;;;;;2.42;100.00;100270.78;4934181;28;20387;-81
2022/12/15 03:12:31;;;;;;;17.40;1.90;;;;;;;2.45;100.00;100277.66;4953467;28;20541;-82
2022/12/15 03:14:58;;;;;;;6.72;1.77;;;;;;;2.42;100.00;100290.59;4951803;29;20102;-81
2022/12/15 03:17:25;;;;;;;8.48;2.03;;;;;;;2.46;100.00;100298.31;4952566;29;20079;-82
2022/12/15 03:19:52;;;;;;;8.55;2.28;;;;;;;2.17;100.00;100254.69;4951611;29;20100;-82
2022/12/15 03:22:19;;;;;;;8.30;1.85;;;;;;;2.43;100.00;100306.09;4950798;29;20047;-82
2022/12/15 03:24:45;;;;;;;12.23;2.15;;;;;;;2.34;100.00;100284.66;4952106;29;20043;-82
2022/12/15 03:27:12;;;;;;;9.98;2.13;;;;;;;2.36;100.00;100283.78;4948614;29;20044;-82
2022/12/15 03:29:39;;;;;;;6.82;1.90;;;;;;;2.32;100.00;100273.47;4951578;29;20051;-82
2022/12/15 03:32:06;;;;;;;7.22;1.50;;;;;;;2.35;100.00;100313.06;4952246;28;20055;-82
2022/12/15 03:34:32;;;;;;;9.43;2.03;;;;;;;2.15;100.00;100271.09;4953319;28;20051;-82
2022/12/15 03:36:59;;;;;;;7.40;1.80;;;;;;;2.57;100.00;100303.34;4951651;29;20470;-82
2022/12/15 03:39:26;;;;;;;5.05;1.60;;;;;;;2.45;100.00;100294.00;4952053;29;20055;-82
2022/12/15 03:41:53;;;;;;;2.90;1.00;;;;;;;2.55;100.00;100317.16;4952473;29;20150;-82
2022/12/15 03:44:20;;;;;;;7.05;1.65;;;;;;;2.51;100.00;100318.06;4951362;29;20478;-83
2022/12/15 03:46:46;;;;;;;9.15;1.52;;;;;;;2.43;100.00;100319.00;4951276;29;20047;-82
2022/12/15 03:49:13;;;;;;;4.63;1.40;;;;;;;2.35;100.00;100317.38;4953235;29;20556;-82
2022/12/15 03:51:40;;;;;;;4.63;1.40;;;;;;;2.24;100.00;100304.56;4951636;28;20087;-83
2022/12/15 03:54:06;;;;;;;3.10;1.20;;;;;;;2.40;100.00;100318.19;4951694;29;20047;-82
2022/12/15 03:56:33;;;;;;;7.68;1.73;;;;;;;2.28;100.00;100324.31;4951974;29;20071;-82
2022/12/15 03:59:00;;;;;;;4.93;1.50;;;;;;;2.14;100.00;100329.63;4953214;28;20378;-83
2022/12/15 04:01:30;;;;;;;5.30;1.85;;;;;;;2.23;100.00;100347.66;4952216;28;20051;-82
2022/12/15 04:03:58;;;;;;;10.25;2.08;;;;;;;2.25;100.00;100340.72;4953088;28;20050;-82
2022/12/15 04:06:27;;;;;;;12.90;1.88;;;;;;;2.24;100.00;100361.41;4951640;29;20061;-82
2022/12/15 04:08:54;;;;;;;4.60;1.55;;;;;;;2.21;100.00;100333.00;4953571;28;20055;-82
2022/12/15 04:11:21;;;;;;;10.27;3.15;;;;;;;2.16;100.00;100364.06;4954985;29;20051;-82
2022/12/15 04:13:47;;;;;;;4.38;1.60;;;;;;;2.23;100.00;100355.38;4955522;29;20055;-82
2022/12/15 04:16:14;;;;;;;13.27;1.77;;;;;;;2.28;100.00;100356.22;4955764;29;20058;-82
2022/12/15 04:20:07;;;;;;;9.63;1.92;;;;;;;2.29;100.00;100349.31;4955507;29;20482;-82
2022/12/15 04:21:32;;;;;;;7.45;1.55;;;;;;;2.35;100.00;100346.66;4954091;29;20063;-82
2022/12/15 05:32:52;;;;;;;2.60;1.00;;;;;;;2.10;100.00;100439.00;4954912;28;20114;-82
2022/12/15 05:35:19;;;;;;;2.05;1.10;;;;;;;2.14;100.00;100430.34;4953484;28;20055;-82
2022/12/15 05:37:46;;;;;;;3.17;1.20;;;;;;;1.97;100.00;100401.25;4955186;28;20043;-82
2022/12/15 05:40:12;;;;;;;3.78;1.40;;;;;;;2.07;100.00;100428.69;4953796;28;20114;-82
2022/12/15 05:42:39;;;;;;;5.50;1.60;;;;;;;2.14;100.00;100434.69;4954495;28;20055;-82
2022/12/15 05:45:06;;;;;;;2.92;1.45;;;;;;;2.35;100.00;100455.16;4953401;28;20051;-82
2022/12/15 05:47:33;;;;;;;2.92;1.20;;;;;;;2.09;100.00;100434.72;4953697;28;20109;-82
2022/12/15 05:49:59;;;;;;;3.95;1.30;;;;;;;2.04;100.00;100437.34;4938981;28;20047;-82
2022/12/15 05:52:26;;;;;;;3.53;1.30;;;;;;;2.02;100.00;100426.16;4954039;28;20098;-82
2022/12/15 05:54:53;;;;;;;2.40;1.20;;;;;;;2.21;100.00;100424.31;4955007;28;20663;-82
2022/12/15 05:57:19;;;;;;;2.88;1.30;;;;;;;2.32;100.00;100446.59;4953519;29;20078;-82
2022/12/15 05:59:46;;;;;;;6.50;1.83;;;;;;;2.26;100.00;100434.56;4939535;28;20119;-82
2022/12/15 06:02:13;;;;;;;6.55;1.40;;;;;;;2.00;100.00;100396.91;4953240;28;20106;-82
2022/12/15 06:04:40;;;;;;;2.55;1.10;;;;;;;2.34;100.00;100430.22;4953193;29;20051;-82
2022/12/15 06:07:07;;;;;;;4.85;1.25;;;;;;;2.40;100.00;100421.53;4952650;28;20453;-82
2022/12/15 06:09:33;;;;;;;6.53;1.35;;;;;;;1.99;100.00;100389.19;4957848;28;20059;-82
2022/12/15 06:12:00;;;;;;;4.40;1.20;;;;;;;2.31;100.00;100450.06;4966081;28;20614;-82
2022/12/15 06:14:27;;;;;;;3.55;1.20;;;;;;;2.05;100.00;100445.94;4949388;28;20051;-82
2022/12/15 06:16:54;;;;;;;3.72;1.17;;;;;;;2.37;100.00;100473.25;4938364;28;20111;-80
2022/12/15 06:19:21;;;;;;;5.00;1.30;;;;;;;2.04;100.00;100457.16;4945634;28;20051;-80
2022/12/15 06:21:48;;;;;;;2.33;1.23;;;;;;;2.38;100.00;100495.63;4950704;28;20051;-80
2022/12/15 06:24:15;;;;;;;2.97;1.30;;;;;;;2.14;100.00;100491.50;4953068;28;20055;-79
2022/12/15 06:26:42;;;;;;;7.63;1.60;;;;;;;1.70;100.00;100431.56;4954029;29;20059;-80
2022/12/15 06:29:11;;;;;;;5.57;1.50;;;;;;;2.02;100.00;100482.97;4943599;29;20354;-80
2022/12/15 06:31:39;;;;;;;5.78;1.55;;;;;;;1.96;100.00;100493.31;4943457;28;20058;-80
2022/12/15 06:34:10;;;;;;;7.88;1.40;;;;;;;2.18;100.00;100504.41;4947762;29;20485;-81
2022/12/15 06:36:37;;;;;;;5.22;1.30;;;;;;;2.24;100.00;100482.81;4960623;28;20056;-80
2022/12/15 06:39:07;;;;;;;1.98;1.15;;;;;;;2.25;100.00;100492.31;4948120;28;20051;-81
2022/12/15 06:41:34;;;;;;;1.70;1.10;;;;;;;2.20;100.00;100479.41;4945692;28;20087;-80
2022/12/15 06:44:01;;;;;;;4.85;1.20;;;;;;;2.42;100.00;100505.91;4958536;28;20055;-82
2022/12/15 06:46:29;;;;;;;2.67;1.15;;;;;;;1.97;100.00;100460.63;4944363;28;20528;-82
2022/12/15 06:48:56;;;;;;;2.40;1.17;;;;;;;2.24;100.00;100485.41;4948816;28;20062;-80
2022/12/15 06:51:27;;;;;;;3.83;1.20;;;;;;;2.33;100.00;100497.41;4947390;28;20457;-80
2022/12/15 06:53:54;;;;;;;3.40;1.30;;;;;;;2.39;100.00;100493.06;4948643;28;20101;-82
2022/12/15 06:56:24;;;;;;;6.35;1.27;;;;;;;2.15;100.00;100477.72;4947917;28;20051;-81
2022/12/15 06:59:00;;;;;;;5.07;1.33;;;;;;;2.38;100.00;100521.47;4949523;28;20063;-81
2022/12/15 07:01:27;;;;;;;3.22;1.40;;;;;;;2.42;100.00;100510.25;4949222;28;20055;-80
2022/12/15 07:03:55;;;;;;;4.82;1.50;;;;;;;2.49;100.00;100524.81;4951674;28;20055;-80
2022/12/15 07:06:22;;;;;;;3.35;1.48;;;;;;;2.53;100.00;100523.06;4963133;28;20472;-82
2022/12/15 07:08:51;;;;;;;4.22;1.95;;;;;;;2.27;100.00;100506.06;4944919;28;20039;-82
2022/12/15 07:11:23;;;;;;;5.57;1.90;;;;;;;2.39;100.00;100513.72;4942407;28;20051;-82
2022/12/15 07:13:53;;;;;;;4.22;1.50;;;;;;;2.65;100.00;100515.22;4942634;28;20047;-82
2022/12/15 07:16:21;;;;;;;5.05;1.35;;;;;;;2.64;100.00;100522.13;4945561;28;20048;-81
2022/12/15 07:18:49;;;;;;;4.88;1.55;;;;;;;2.63;100.00;100522.13;4948221;28;20489;-82
2022/12/15 07:21:16;;;;;;;3.60;1.30;;;;;;;2.57;100.00;100535.97;4945561;29;20106;-81
2022/12/15 07:23:43;;;;;;;5.88;1.38;;;;;;;2.51;100.00;100528.25;4940012;28;20055;-82
2022/12/15 07:26:27;;;;;;;5.10;1.50;;;;;;;2.57;100.00;100535.13;4958598;28;20057;-80
2022/12/15 07:28:54;;;;;;;2.97;1.27;;;;;;;2.58;100.00;100522.16;4942559;28;20055;-80
2022/12/15 07:31:22;;;;;;;3.25;1.38;;;;;;;2.61;100.00;100523.88;4944850;28;20130;-80
2022/12/15 07:33:50;;;;;;;4.93;1.40;;;;;;;2.62;100.00;100523.00;4950928;28;20055;-80
2022/12/15 07:36:18;;;;;;;3.67;1.60;;;;;;;2.70;100.00;100543.63;4948775;28;20138;-80
2022/12/15 07:38:45;;;;;;;4.05;1.30;;;;;;;2.19;100.00;100484.56;4947430;28;20098;-81
2022/12/15 07:41:17;;;;;;;4.40;1.40;;;;;;;2.44;100.00;100500.75;4951182;28;20485;-81
2022/12/15 07:43:45;;;;;;;6.75;1.90;;;;;;;2.41;100.00;100522.31;4946762;28;20082;-79
2022/12/15 07:46:12;;;;;;;4.20;1.45;;;;;;;2.40;100.00;100515.41;4946062;29;20454;-79
2022/12/15 07:48:38;;;;;;;6.82;1.45;;;;;;;2.31;100.00;100514.66;4964700;28;20125;-79
2022/12/15 07:51:06;;;;;;;4.47;1.60;;;;;;;2.35;100.00;100543.00;4953585;28;20054;-79
2022/12/15 07:53:38;;;;;;;9.85;1.92;;;;;;;2.53;100.00;100543.75;4950499;29;20052;-79
2022/12/15 07:56:06;;;;;;;9.88;2.22;;;;;;;2.71;100.00;100577.22;4954555;29;20059;-80
2022/12/15 07:58:36;;;;;;;6.53;2.67;;;;;;;2.39;100.00;100555.06;4960006;28;20042;-80
2022/12/15 08:01:06;;;;;;;7.03;1.73;;;;;;;2.49;100.00;100575.66;4953441;28;20055;-80
2022/12/15 08:03:33;;;;;;;6.80;2.05;;;;;;;2.70;100.00;100595.34;4955612;29;20134;-79
2022/12/15 08:06:05;;;;;;;7.32;1.70;;;;;;;2.38;100.00;100568.84;4952211;28;20047;-80
2022/12/15 08:08:32;;;;;;;4.35;1.80;;;;;;;2.59;100.00;100606.59;4954897;28;20047;-79
2022/12/15 08:11:08;;;;;;;5.43;1.45;;;;;;;2.35;100.00;100561.09;4955412;28;20047;-80
2022/12/15 08:13:36;;;;;;;3.63;1.50;;;;;;;2.51;100.00;100598.03;4954946;28;20499;-80
2022/12/15 08:16:22;;;;;;;3.75;1.58;;;;;;;2.44;100.00;100586.91;4954281;29;20078;-79
2022/12/15 08:18:49;;;;;;;9.32;1.58;;;;;;;2.35;100.00;100574.03;4956429;28;20107;-79
2022/12/15 08:21:16;;;;;;;8.85;1.80;;;;;;;2.26;100.00;100574.09;4946389;28;20512;-80
2022/12/15 08:23:43;;;;;;;4.40;1.60;;;;;;;2.46;100.00;100623.06;4956580;28;20059;-79
2022/12/15 08:26:13;;;;;;;6.72;1.52;;;;;;;2.34;100.00;100582.66;4956810;28;21414;-81
2022/12/15 08:28:42;;;;;;;6.22;1.73;;;;;;;2.39;100.00;100617.09;4952055;29;20087;-79
2022/12/15 08:31:15;;;;;;;5.53;1.75;;;;;;;2.24;100.00;100597.34;4955998;28;20066;-80
2022/12/15 08:33:43;;;;;;;3.25;1.50;;;;;;;2.55;100.00;100642.81;4955544;28;20083;-79
2022/12/15 08:36:13;;;;;;;6.93;2.03;;;;;;;2.61;100.00;100641.06;4955258;28;20049;-79
2022/12/15 08:38:41;;;;;;;4.35;1.50;;;;;;;2.42;100.00;100616.19;4956203;28;20051;-80
2022/12/15 08:41:11;;;;;;;5.03;1.30;;;;;;;2.26;100.00;100602.50;4958623;28;20043;-80
2022/12/15 08:43:38;;;;;;;4.82;1.30;;;;;;;2.40;100.00;100623.94;4951891;28;20055;-79
2022/12/15 08:46:18;;;;;;;6.47;1.98;;;;;;;2.45;100.00;100670.44;4951275;28;20130;-80
2022/12/15 08:48:45;;;;;;;5.70;1.90;;;;;;;2.36;100.00;100647.25;4950097;28;20076;-80
2022/12/15 08:51:13;;;;;;;7.93;2.55;;;;;;;2.20;100.00;100631.81;4950400;28;20059;-80
2022/12/15 08:53:39;;;;;;;4.18;1.40;;;;;;;2.15;100.00;100638.72;4962124;28;20062;-80
2022/12/15 08:56:12;;;;;;;3.47;1.67;;;;;;;2.38;100.00;100679.97;4977145;28;20047;-78
2022/12/15 08:58:39;;;;;;;8.05;1.85;;;;;;;1.99;100.00;100642.25;4944718;29;20051;-80
2022/12/15 09:01:10;;;;;;;5.93;1.88;;;;;;;1.82;100.00;100635.41;4957055;28;20055;-80
2022/12/15 09:03:44;;;;;;;4.75;1.85;;;;;;;1.78;100.00;100620.78;4956119;28;20135;-81
2022/12/15 09:06:17;;;;;;;2.60;1.30;;;;;;;1.85;100.00;100648.31;4961116;28;20469;-81
2022/12/15 09:08:44;;;;;;;5.00;1.65;;;;;;;2.01;100.00;100666.34;4961567;28;20054;-82
2022/12/15 09:11:16;;;;;;;31.08;17.85;;;;;;;1.67;100.00;100635.47;4954341;29;20413;-80
2022/12/15 09:13:43;;;;;;;18.92;11.15;;;;;;;2.10;100.00;100697.28;4962935;28;20047;-81
2022/12/15 09:16:13;;;;;;;27.70;15.27;;;;;;;2.07;100.00;100700.75;4968020;28;20058;-81
2022/12/15 09:18:48;;;;;;;20.92;9.18;;;;;;;2.08;100.00;100699.03;4959047;28;20047;-81
2022/12/15 09:21:16;;;;;;;18.35;9.93;;;;;;;1.89;100.00;100672.38;4954215;29;20074;-81
2022/12/15 09:23:47;;;;;;;13.75;7.00;;;;;;;1.90;100.00;100671.53;4956829;28;20055;-81
2022/12/15 09:26:14;;;;;;;14.07;6.28;;;;;;;1.92;100.00;100664.66;4953143;29;20054;-81
2022/12/15 09:28:42;;;;;;;10.00;6.55;;;;;;;1.85;100.00;100666.38;4966569;28;20057;-81
2022/12/15 09:31:10;;;;;;;9.10;4.15;;;;;;;2.25;100.00;100709.31;4958246;28;20054;-82
2022/12/15 09:33:38;;;;;;;6.63;2.88;;;;;;;1.98;100.00;100672.34;4957382;28;20489;-82
2022/12/15 09:36:06;;;;;;;5.22;2.20;;;;;;;2.24;100.00;100707.59;4946000;29;20059;-82
2022/12/15 09:38:34;;;;;;;4.97;1.85;;;;;;;2.02;100.00;100678.38;4957167;28;20070;-82
2022/12/15 09:41:11;;;;;;;3.25;1.58;;;;;;;2.37;100.00;100704.06;4955180;29;20055;-82
2022/12/15 09:43:50;;;;;;;3.88;1.40;;;;;;;2.25;100.00;100662.81;4955900;29;20054;-82
2022/12/15 09:47:04;;;;;;;4.47;1.85;;;;;;;2.17;100.00;100628.38;4957029;28;20051;-88
2022/12/15 09:49:54;;;;;;;6.32;2.45;;;;;;;2.43;100.00;100685.97;4944274;28;20118;-81
2022/12/15 09:52:26;;;;;;;7.93;2.40;;;;;;;2.41;100.00;100700.63;4957823;29;20482;-86
2022/12/15 09:54:53;;;;;;;6.32;2.38;;;;;;;2.21;100.00;100695.56;4955738;29;20073;-82
2022/12/15 09:57:46;;;;;;;4.15;1.52;;;;;;;2.42;100.00;100691.13;4963076;28;20123;-82
2022/12/15 10:00:20;;;;;;;4.25;1.52;;;;;;;2.46;100.00;100696.28;4977142;28;20055;-82
2022/12/15 10:03:08;;;;;;;3.90;1.80;;;;;;;2.09;100.00;100631.03;4957923;28;20126;-82
2022/12/15 10:06:00;;;;;;;4.30;1.60;;;;;;;2.05;100.00;100632.75;4968229;28;20047;-82
2022/12/15 10:08:59;;;;;;;4.32;1.48;;;;;;;2.04;100.00;100607.78;4948417;28;20688;-82
2022/12/15 10:11:47;;;;;;;2.75;1.40;;;;;;;2.33;100.00;100667.94;4951000;29;20047;-82
2022/12/15 10:14:37;;;;;;;3.70;1.38;;;;;;;2.53;100.00;100704.84;4972404;28;20063;-82
2022/12/15 10:17:13;;;;;;;4.95;1.63;;;;;;;2.41;100.00;100705.78;4950083;28;20102;-81
2022/12/15 10:19:48;;;;;;;3.05;1.50;;;;;;;2.23;100.00;100677.44;4950813;29;20043;-82
2022/12/15 10:22:25;;;;;;;5.65;1.88;;;;;;;2.55;100.00;100704.84;4957322;28;20461;-81
2022/12/15 10:24:53;;;;;;;4.75;1.50;;;;;;;2.51;100.00;100722.09;4949720;28;20050;-82
2022/12/15 10:28:14;;;;;;;8.48;1.45;;;;;;;2.51;100.00;100724.69;4955490;29;20086;-81
2022/12/15 10:31:16;;;;;;;3.92;1.48;;;;;;;2.57;100.00;100731.56;4946152;28;20071;-82
2022/12/15 10:33:50;;;;;;;4.93;1.42;;;;;;;2.30;100.00;100697.22;4964052;28;20047;-82
2022/12/15 10:36:17;;;;;;;4.38;1.65;;;;;;;2.05;100.00;100684.41;4955011;29;20423;-82
2022/12/15 10:38:46;;;;;;;5.32;1.55;;;;;;;2.38;100.00;100712.69;4956195;28;20043;-83
2022/12/15 10:41:24;;;;;;;3.13;1.60;;;;;;;2.39;100.00;100729.91;4951284;28;20062;-82
2022/12/15 10:43:53;;;;;;;5.28;1.60;;;;;;;2.32;100.00;100726.50;4952709;29;20054;-82
2022/12/15 10:46:25;;;;;;;4.30;1.38;;;;;;;2.19;100.00;100667.97;4945393;28;20565;-82
2022/12/15 10:48:53;;;;;;;3.40;1.50;;;;;;;2.59;100.00;100728.09;4958597;28;20047;-81
2022/12/15 10:51:31;;;;;;;13.40;2.60;;;;;;;2.31;100.00;100709.28;4956792;29;20055;-81
2022/12/15 10:54:03;;;;;;;3.00;1.30;;;;;;;2.56;100.00;100737.59;4947465;29;20478;-81
2022/12/15 10:56:32;;;;;;;5.45;1.88;;;;;;;2.46;100.00;100708.34;4962213;28;20112;-82
2022/12/15 10:59:03;;;;;;;4.50;1.50;;;;;;;2.48;100.00;100714.38;4953189;28;20059;-82
2022/12/15 11:01:32;;;;;;;3.40;1.50;;;;;;;2.13;100.00;100663.72;4950878;28;20071;-81
2022/12/15 11:04:00;;;;;;;3.72;1.65;;;;;;;1.99;100.00;100692.16;4965999;28;20059;-82
2022/12/15 11:06:32;;;;;;;4.28;2.35;;;;;;;2.34;100.00;100718.72;4964231;28;20145;-82
2022/12/15 11:09:35;;;;;;;5.10;1.50;;;;;;;2.45;100.00;100758.31;4968894;28;20051;-83
2022/12/15 11:15:20;;;;;;;4.40;1.38;;;;;;;2.94;100.00;100755.50;4964665;28;20050;-84
2022/12/15 11:18:01;;;;;;;6.05;1.75;;;;;;;2.62;100.00;100680.69;4958210;28;20474;-83
2022/12/15 11:20:40;;;;;;;3.92;1.60;;;;;;;2.95;100.00;100743.41;4955059;28;20502;-84
2022/12/15 11:23:26;;;;;;;3.60;1.60;;;;;;;3.18;100.00;100746.72;4954199;29;20055;-84
2022/12/15 11:25:59;;;;;;;5.85;1.67;;;;;;;3.13;100.00;100735.53;4955506;29;20082;-84
2022/12/15 11:28:42;;;;;;;5.30;1.50;;;;;;;3.00;100.00;100737.34;4958852;28;20060;-84
2022/12/15 11:31:23;;;;;;;5.38;1.50;;;;;;;2.96;100.00;100694.28;4950112;29;20062;-82
2022/12/15 11:33:52;;;;;;;3.08;1.27;;;;;;;2.99;100.00;100730.47;4957399;28;20062;-84
2022/12/15 11:36:22;;;;;;;7.50;1.67;;;;;;;3.21;100.00;100763.97;4960862;28;20059;-83
2022/12/15 11:38:58;;;;;;;6.32;1.30;;;;;;;3.12;100.00;100718.31;4958872;28;20050;-84
2022/12/15 11:41:49;;;;;;;3.42;1.67;;;;;;;2.83;100.00;100695.22;4953850;29;20051;-83
2022/12/15 11:44:21;;;;;;;5.07;1.90;;;;;;;3.36;100.00;100755.22;4971561;28;20062;-84
2022/12/15 11:47:18;;;;;;;4.10;1.45;;;;;;;3.03;100.00;100692.50;4964513;28;20430;-83
2022/12/15 11:49:53;;;;;;;5.05;1.40;;;;;;;3.38;100.00;100766.41;4974393;28;20103;-84
2022/12/15 11:52:51;;;;;;;3.97;1.38;;;;;;;3.38;100.00;100769.88;4962161;28;20058;-83
2022/12/15 11:55:30;;;;;;;6.20;1.70;;;;;;;3.31;100.00;100770.78;4956682;29;20051;-84
2022/12/15 11:58:37;;;;;;;3.10;1.23;;;;;;;3.49;100.00;100764.63;4958470;28;20063;-83
2022/12/15 12:01:06;;;;;;;4.93;1.50;;;;;;;3.31;100.00;100765.63;4962488;28;20043;-84
2022/12/15 12:03:47;;;;;;;3.70;1.30;;;;;;;3.32;100.00;100766.47;4976253;28;20094;-84
2022/12/15 12:06:39;;;;;;;3.70;1.35;;;;;;;3.08;100.00;100719.22;4962505;29;20059;-84
2022/12/15 12:09:19;;;;;;;4.25;1.50;;;;;;;2.94;100.00;100718.41;4951202;29;20433;-84
2022/12/15 12:11:58;;;;;;;4.10;1.52;;;;;;;3.24;100.00;100763.94;4962312;28;20059;-83
2022/12/15 12:15:02;;;;;;;3.55;1.27;;;;;;;3.41;100.00;100750.88;4962393;29;20525;-84
2022/12/15 12:17:41;;;;;;;5.50;1.35;;;;;;;3.51;100.00;100756.84;4962569;29;20050;-83
2022/12/15 12:20:25;;;;;;;3.53;1.40;;;;;;;3.45;100.00;100744.78;4962142;28;20050;-83
2022/12/15 12:23:01;;;;;;;3.40;1.30;;;;;;;3.24;100.00;100722.53;4961770;29;20106;-84
2022/12/15 12:25:33;;;;;;;3.25;1.45;;;;;;;3.24;100.00;100719.94;4963099;28;20051;-84
2022/12/15 12:28:24;;;;;;;4.20;1.50;;;;;;;3.52;100.00;100735.25;4960209;28;20080;-84
2022/12/15 12:30:55;;;;;;;6.32;1.33;;;;;;;3.33;100.00;100706.06;4968453;28;20755;-82
2022/12/15 12:33:35;;;;;;;5.47;1.38;;;;;;;3.45;100.00;100734.44;4976744;28;20058;-84
2022/12/15 12:36:14;;;;;;;1.85;1.10;;;;;;;3.32;100.00;100717.28;4970017;28;20055;-85
2022/12/15 12:38:47;;;;;;;3.17;1.20;;;;;;;3.06;100.00;100689.88;4956584;28;20099;-83
2022/12/15 12:41:27;;;;;;;3.35;1.30;;;;;;;3.45;100.00;100723.22;4951042;28;20055;-83
2022/12/15 12:43:57;;;;;;;3.80;1.30;;;;;;;3.04;100.00;100668.34;4961726;28;20062;-84
2022/12/15 12:46:41;;;;;;;4.85;1.52;;;;;;;3.08;100.00;100687.28;4957487;29;20051;-84
2022/12/15 12:49:15;;;;;;;9.70;1.60;;;;;;;3.12;100.00;100707.09;4956900;29;20482;-83
2022/12/15 12:52:02;;;;;;;3.10;1.15;;;;;;;2.91;100.00;100708.13;4955456;29;20050;-83
2022/12/15 12:54:35;;;;;;;1.70;1.13;;;;;;;3.40;100.00;100746.56;4956346;29;20054;-83
2022/12/15 12:57:11;;;;;;;2.85;1.40;;;;;;;3.55;100.00;100745.56;4961697;28;20051;-83
2022/12/15 12:59:46;;;;;;;2.28;1.10;;;;;;;3.52;100.00;100746.44;4960457;28;20046;-84
2022/12/15 13:02:20;;;;;;;3.67;1.40;;;;;;;3.62;100.00;100744.66;4956155;29;20143;-84
2022/12/15 13:04:59;;;;;;;4.75;1.50;;;;;;;3.28;100.00;100749.25;4965253;28;20050;-84
2022/12/15 13:07:35;;;;;;;3.38;1.27;;;;;;;3.27;100.00;100732.84;4949832;29;20055;-84
2022/12/15 13:10:07;;;;;;;2.72;1.27;;;;;;;3.08;100.00;100744.19;4956969;28;20054;-83
2022/12/15 13:12:50;;;;;;;4.28;1.30;;;;;;;3.41;100.00;100738.75;4959195;28;21486;-85
2022/12/15 13:15:41;;;;;;;3.13;1.45;;;;;;;3.33;100.00;100732.81;4957512;28;20098;-84
2022/12/15 13:18:22;;;;;;;3.47;1.40;;;;;;;3.12;100.00;100743.31;4955640;29;20051;-84
2022/12/15 13:20:53;;;;;;;5.30;1.75;;;;;;;2.94;100.00;100713.25;4957421;28;20058;-84
2022/12/15 13:23:20;;;;;;;4.20;1.45;;;;;;;3.22;100.00;100737.19;4957761;29;20054;-84
2022/12/15 13:25:59;;;;;;;3.95;1.52;;;;;;;3.28;100.00;100731.13;4962252;28;20052;-85
2022/12/15 13:28:34;;;;;;;3.47;1.40;;;;;;;3.37;100.00;100733.66;4954831;29;20118;-85
2022/12/15 13:31:12;;;;;;;3.47;1.30;;;;;;;3.25;100.00;100694.94;4954068;29;20429;-84
2022/12/15 13:33:48;;;;;;;3.83;1.40;;;;;;;3.35;100.00;100731.06;4957426;28;20110;-84
2022/12/15 13:36:36;;;;;;;2.45;1.05;;;;;;;3.34;100.00;100726.75;4971080;28;20055;-85
2022/12/15 13:39:23;;;;;;;2.45;1.10;;;;;;;3.51;100.00;100729.22;4961662;28;20386;-84
2022/12/15 13:41:53;;;;;;;2.88;1.45;;;;;;;3.04;100.00;100670.94;4955891;28;20051;-83
2022/12/15 13:44:45;;;;;;;3.03;1.33;;;;;;;3.00;100.00;100698.53;4954836;29;20043;-83
2022/12/15 13:47:17;;;;;;;2.28;1.15;;;;;;;3.10;100.00;100714.00;4955933;28;20082;-82
2022/12/15 13:49:54;;;;;;;3.70;1.25;;;;;;;3.26;100.00;100731.16;4955322;28;20098;-82
2022/12/15 13:52:33;;;;;;;3.15;1.40;;;;;;;2.78;100.00;100687.50;4955833;28;20134;-82
2022/12/15 13:55:23;;;;;;;3.65;1.50;;;;;;;3.10;100.00;100726.94;4955323;28;20047;-83
2022/12/15 13:57:58;;;;;;;2.65;1.23;;;;;;;2.81;100.00;100705.56;4957280;28;20058;-83
2022/12/15 14:00:25;;;;;;;3.03;1.27;;;;;;;3.02;100.00;100742.50;4954302;28;20167;-81
2022/12/15 14:03:06;;;;;;;2.05;1.10;;;;;;;2.86;100.00;100702.97;4939831;29;20119;-82
2022/12/15 14:05:33;;;;;;;2.55;1.30;;;;;;;2.72;100.00;100673.75;4957442;28;20094;-82
2022/12/15 14:08:02;;;;;;;1.55;1.17;;;;;;;2.74;100.00;100709.06;4956171;28;20382;-83
2022/12/15 14:10:31;;;;;;;4.35;1.20;;;;;;;2.72;100.00;100740.97;4951840;28;20047;-82
2022/12/15 14:13:09;;;;;;;1.70;1.15;;;;;;;2.59;100.00;100735.00;4955516;28;20062;-83
2022/12/15 14:15:46;;;;;;;4.93;1.50;;;;;;;2.76;100.00;100727.16;4941813;28;20083;-83
2022/12/15 14:18:23;;;;;;;2.95;1.25;;;;;;;2.67;100.00;100709.94;4953972;29;20055;-82